Hovedside
METAR-TAF:

METAR-TAF

Lufthavner :

Cristiano Ronaldo internasjonale lufthavn

Funchal, Madeira, Portugal

breddegrad: 32-41-52N, lengdegrad: 016-46-28W, høyde over havet: 59 m

Gjeldene værobservasjon

Denne rapporten ble laget for 44 minutter siden, klokken 11:00 UTC
Vind 5 kt fra Øst, skiftende mellom Nord og Sørøst
Temperatur 25°C
Luftfuktighet 57%
Trykk 1020 hPa
Sikt 10 km eller mer
Få skyer i en høyde av 1500 ft

METAR: LPMA 201100Z 10005KT 010V140 9999 FEW015 25/16 Q1020

Tid: 12:44 (11:44 UTC)

Varsel

Denne rapporten ble laget for 44 minutter siden, klokken 11:00 UTC
Varsel gyldig fra 20. klokken 12 UTC til 21. klokken 12 UTC
Vind 5 kt fra skiftende retning
Sikt 10 km eller mer
Spredte skyer i en høyde av 1500 ft
Sannsynlighet 30%
fra 20. klokken 12 UTC til 20. klokken 18 UTC
Vind 8 kt fra Sør-sørvest

TAF: LPMA 201100Z 2012/2112 VRB05KT 9999 SCT015 PROB30 2012/2018 20008KT

Værobservasjoner og værvarsel for over 4000 flyplasser (METAR- og TAF-rapporter).

Tilgjengelige stasjoner er representert av de røde og gule prikkene på kartet.

Hold musepekeren over prikken for å se navnet på stasjonen.

Klikk så for å se værobservasjoner og -varsler.

For å forandre kartet kan du klikke på den grønne knappen med svart kryss for å zoome inn, på den grønne knappen med strek for å zoome ut, eller på de grønne pilene for å se tilstøtende kart.


METAR-TAF: